sensor_id;sensor_type;location;lat;lon;timestamp;P1;durP1;ratioP1;P2;durP2;ratioP2
16504;SDS011;8365;51.030;4.696;2023-02-15T00:01:07;57.83;;;40.30;;
16504;SDS011;8365;51.030;4.696;2023-02-15T00:03:39;55.03;;;36.80;;
16504;SDS011;8365;51.030;4.696;2023-02-15T00:06:09;51.30;;;35.10;;
16504;SDS011;8365;51.030;4.696;2023-02-15T00:08:40;54.03;;;37.47;;
16504;SDS011;8365;51.030;4.696;2023-02-15T00:11:12;55.53;;;36.00;;
16504;SDS011;8365;51.030;4.696;2023-02-15T00:13:44;53.97;;;36.83;;
16504;SDS011;8365;51.030;4.696;2023-02-15T00:16:14;53.27;;;35.93;;
16504;SDS011;8365;51.030;4.696;2023-02-15T00:18:44;53.60;;;36.73;;
16504;SDS011;8365;51.030;4.696;2023-02-15T00:21:15;54.13;;;36.43;;
16504;SDS011;8365;51.030;4.696;2023-02-15T00:23:45;64.77;;;43.57;;
16504;SDS011;8365;51.030;4.696;2023-02-15T00:26:16;58.00;;;38.30;;
16504;SDS011;8365;51.030;4.696;2023-02-15T00:28:46;58.30;;;36.77;;
16504;SDS011;8365;51.030;4.696;2023-02-15T00:31:17;52.37;;;36.07;;
16504;SDS011;8365;51.030;4.696;2023-02-15T00:33:47;53.97;;;33.57;;
16504;SDS011;8365;51.030;4.696;2023-02-15T00:36:20;49.80;;;34.70;;
16504;SDS011;8365;51.030;4.696;2023-02-15T00:38:52;53.97;;;34.27;;
16504;SDS011;8365;51.030;4.696;2023-02-15T00:41:22;53.77;;;37.47;;
16504;SDS011;8365;51.030;4.696;2023-02-15T00:43:53;52.77;;;35.47;;
16504;SDS011;8365;51.030;4.696;2023-02-15T00:46:24;47.53;;;33.43;;
16504;SDS011;8365;51.030;4.696;2023-02-15T00:48:54;59.17;;;39.00;;
16504;SDS011;8365;51.030;4.696;2023-02-15T00:51:25;51.10;;;35.50;;
16504;SDS011;8365;51.030;4.696;2023-02-15T00:53:55;53.47;;;38.93;;
16504;SDS011;8365;51.030;4.696;2023-02-15T00:56:28;56.03;;;39.60;;
16504;SDS011;8365;51.030;4.696;2023-02-15T00:58:58;52.50;;;37.83;;
16504;SDS011;8365;51.030;4.696;2023-02-15T01:01:29;59.20;;;38.50;;
16504;SDS011;8365;51.030;4.696;2023-02-15T01:03:59;55.03;;;38.53;;
16504;SDS011;8365;51.030;4.696;2023-02-15T01:06:31;65.77;;;44.83;;
16504;SDS011;8365;51.030;4.696;2023-02-15T01:09:01;64.43;;;43.37;;
16504;SDS011;8365;51.030;4.696;2023-02-15T01:11:32;67.37;;;52.53;;
16504;SDS011;8365;51.030;4.696;2023-02-15T01:14:02;61.50;;;42.30;;
16504;SDS011;8365;51.030;4.696;2023-02-15T01:16:34;72.13;;;47.63;;
16504;SDS011;8365;51.030;4.696;2023-02-15T01:19:04;62.87;;;41.43;;
16504;SDS011;8365;51.030;4.696;2023-02-15T01:21:35;61.00;;;39.60;;
16504;SDS011;8365;51.030;4.696;2023-02-15T01:24:10;57.87;;;38.00;;
16504;SDS011;8365;51.030;4.696;2023-02-15T01:26:42;59.07;;;41.27;;
16504;SDS011;8365;51.030;4.696;2023-02-15T01:29:15;58.17;;;39.67;;
16504;SDS011;8365;51.030;4.696;2023-02-15T01:31:46;58.27;;;39.43;;
16504;SDS011;8365;51.030;4.696;2023-02-15T01:34:16;58.57;;;39.73;;
16504;SDS011;8365;51.030;4.696;2023-02-15T01:36:47;56.27;;;39.50;;
16504;SDS011;8365;51.030;4.696;2023-02-15T01:39:18;56.73;;;40.33;;
16504;SDS011;8365;51.030;4.696;2023-02-15T01:41:48;58.00;;;38.30;;
16504;SDS011;8365;51.030;4.696;2023-02-15T01:47:16;56.20;;;38.17;;
16504;SDS011;8365;51.030;4.696;2023-02-15T01:49:53;56.77;;;37.80;;
16504;SDS011;8365;51.030;4.696;2023-02-15T01:52:31;57.03;;;38.33;;
16504;SDS011;8365;51.030;4.696;2023-02-15T01:55:06;55.80;;;37.67;;
16504;SDS011;8365;51.030;4.696;2023-02-15T01:57:37;61.03;;;39.87;;
16504;SDS011;8365;51.030;4.696;2023-02-15T02:00:09;55.83;;;37.77;;
16504;SDS011;8365;51.030;4.696;2023-02-15T02:02:43;56.67;;;39.60;;
16504;SDS011;8365;51.030;4.696;2023-02-15T02:05:16;58.87;;;39.57;;
16504;SDS011;8365;51.030;4.696;2023-02-15T02:07:47;58.17;;;40.57;;
16504;SDS011;8365;51.030;4.696;2023-02-15T02:10:22;54.50;;;38.90;;
16504;SDS011;8365;51.030;4.696;2023-02-15T02:13:03;55.67;;;37.30;;
16504;SDS011;8365;51.030;4.696;2023-02-15T02:15:40;54.50;;;37.23;;
16504;SDS011;8365;51.030;4.696;2023-02-15T02:32:51;59.43;;;39.43;;
16504;SDS011;8365;51.030;4.696;2023-02-15T02:55:10;67.43;;;42.60;;
16504;SDS011;8365;51.030;4.696;2023-02-15T03:00:36;66.03;;;42.23;;
16504;SDS011;8365;51.030;4.696;2023-02-15T03:03:54;64.03;;;41.17;;
16504;SDS011;8365;51.030;4.696;2023-02-15T03:06:09;67.10;;;39.07;;
16504;SDS011;8365;51.030;4.696;2023-02-15T03:08:45;68.13;;;40.93;;
16504;SDS011;8365;51.030;4.696;2023-02-15T03:11:20;63.13;;;41.20;;
16504;SDS011;8365;51.030;4.696;2023-02-15T03:13:51;65.30;;;42.57;;
16504;SDS011;8365;51.030;4.696;2023-02-15T03:16:24;61.70;;;41.27;;
16504;SDS011;8365;51.030;4.696;2023-02-15T03:19:41;64.93;;;41.33;;
16504;SDS011;8365;51.030;4.696;2023-02-15T03:21:54;66.37;;;40.60;;
16504;SDS011;8365;51.030;4.696;2023-02-15T03:24:41;72.27;;;41.87;;
16504;SDS011;8365;51.030;4.696;2023-02-15T03:27:24;58.30;;;39.67;;
16504;SDS011;8365;51.030;4.696;2023-02-15T03:30:01;63.70;;;40.47;;
16504;SDS011;8365;51.030;4.696;2023-02-15T03:32:34;62.87;;;40.93;;
16504;SDS011;8365;51.030;4.696;2023-02-15T03:35:07;62.87;;;40.33;;
16504;SDS011;8365;51.030;4.696;2023-02-15T03:43:17;57.87;;;39.93;;
16504;SDS011;8365;51.030;4.696;2023-02-15T03:46:11;63.53;;;41.57;;
16504;SDS011;8365;51.030;4.696;2023-02-15T03:48:43;65.20;;;42.90;;
16504;SDS011;8365;51.030;4.696;2023-02-15T03:51:20;68.60;;;48.00;;
16504;SDS011;8365;51.030;4.696;2023-02-15T03:54:08;70.03;;;46.47;;
16504;SDS011;8365;51.030;4.696;2023-02-15T03:57:08;63.23;;;41.57;;
16504;SDS011;8365;51.030;4.696;2023-02-15T04:00:00;68.97;;;42.20;;
16504;SDS011;8365;51.030;4.696;2023-02-15T04:05:31;68.90;;;46.00;;
16504;SDS011;8365;51.030;4.696;2023-02-15T04:08:02;69.20;;;47.90;;
16504;SDS011;8365;51.030;4.696;2023-02-15T04:10:35;80.07;;;55.67;;
16504;SDS011;8365;51.030;4.696;2023-02-15T04:13:31;80.83;;;57.97;;
16504;SDS011;8365;51.030;4.696;2023-02-15T04:16:02;74.27;;;49.97;;
16504;SDS011;8365;51.030;4.696;2023-02-15T04:18:37;68.27;;;45.43;;
16504;SDS011;8365;51.030;4.696;2023-02-15T04:21:28;62.50;;;43.57;;
16504;SDS011;8365;51.030;4.696;2023-02-15T04:24:18;67.37;;;43.03;;
16504;SDS011;8365;51.030;4.696;2023-02-15T04:27:10;67.33;;;43.10;;
16504;SDS011;8365;51.030;4.696;2023-02-15T04:29:40;67.97;;;44.50;;
16504;SDS011;8365;51.030;4.696;2023-02-15T04:32:10;64.03;;;41.60;;
16504;SDS011;8365;51.030;4.696;2023-02-15T04:34:41;64.07;;;43.07;;
16504;SDS011;8365;51.030;4.696;2023-02-15T04:37:11;61.90;;;41.17;;
16504;SDS011;8365;51.030;4.696;2023-02-15T04:39:42;69.27;;;44.93;;
16504;SDS011;8365;51.030;4.696;2023-02-15T04:42:12;72.47;;;45.67;;
16504;SDS011;8365;51.030;4.696;2023-02-15T04:44:43;64.93;;;43.67;;
16504;SDS011;8365;51.030;4.696;2023-02-15T04:47:13;66.93;;;42.00;;
16504;SDS011;8365;51.030;4.696;2023-02-15T04:49:44;65.70;;;41.47;;
16504;SDS011;8365;51.030;4.696;2023-02-15T04:52:14;68.83;;;44.27;;
16504;SDS011;8365;51.030;4.696;2023-02-15T04:54:47;64.07;;;43.47;;
16504;SDS011;8365;51.030;4.696;2023-02-15T04:57:17;68.83;;;43.73;;
16504;SDS011;8365;51.030;4.696;2023-02-15T04:59:48;64.17;;;44.27;;
16504;SDS011;8365;51.030;4.696;2023-02-15T05:02:18;62.87;;;42.73;;
16504;SDS011;8365;51.030;4.696;2023-02-15T05:04:49;64.37;;;43.07;;
16504;SDS011;8365;51.030;4.696;2023-02-15T05:07:19;67.00;;;41.10;;
16504;SDS011;8365;51.030;4.696;2023-02-15T05:09:52;67.27;;;42.83;;
16504;SDS011;8365;51.030;4.696;2023-02-15T05:12:23;63.50;;;42.83;;
16504;SDS011;8365;51.030;4.696;2023-02-15T05:14:53;58.63;;;40.30;;
16504;SDS011;8365;51.030;4.696;2023-02-15T05:17:24;59.63;;;41.90;;
16504;SDS011;8365;51.030;4.696;2023-02-15T05:19:54;63.37;;;45.63;;
16504;SDS011;8365;51.030;4.696;2023-02-15T05:22:25;67.37;;;46.13;;
16504;SDS011;8365;51.030;4.696;2023-02-15T05:24:55;61.10;;;42.87;;
16504;SDS011;8365;51.030;4.696;2023-02-15T05:27:44;67.93;;;43.60;;
16504;SDS011;8365;51.030;4.696;2023-02-15T05:30:34;70.43;;;42.93;;
16504;SDS011;8365;51.030;4.696;2023-02-15T05:33:05;62.07;;;40.47;;
16504;SDS011;8365;51.030;4.696;2023-02-15T05:35:36;67.27;;;44.27;;
16504;SDS011;8365;51.030;4.696;2023-02-15T05:38:07;65.07;;;41.17;;
16504;SDS011;8365;51.030;4.696;2023-02-15T05:40:37;71.17;;;47.20;;
16504;SDS011;8365;51.030;4.696;2023-02-15T05:43:08;74.33;;;43.57;;
16504;SDS011;8365;51.030;4.696;2023-02-15T05:45:38;67.83;;;42.97;;
16504;SDS011;8365;51.030;4.696;2023-02-15T05:48:09;74.20;;;47.23;;
16504;SDS011;8365;51.030;4.696;2023-02-15T05:50:39;71.20;;;47.00;;
16504;SDS011;8365;51.030;4.696;2023-02-15T05:53:10;68.47;;;47.57;;
16504;SDS011;8365;51.030;4.696;2023-02-15T05:55:41;74.33;;;48.40;;
16504;SDS011;8365;51.030;4.696;2023-02-15T05:58:11;78.93;;;49.23;;
16504;SDS011;8365;51.030;4.696;2023-02-15T06:00:41;69.70;;;50.17;;
16504;SDS011;8365;51.030;4.696;2023-02-15T06:03:12;68.70;;;43.60;;
16504;SDS011;8365;51.030;4.696;2023-02-15T06:05:42;64.07;;;42.23;;
16504;SDS011;8365;51.030;4.696;2023-02-15T06:08:13;63.43;;;42.43;;
16504;SDS011;8365;51.030;4.696;2023-02-15T06:10:45;69.30;;;48.33;;
16504;SDS011;8365;51.030;4.696;2023-02-15T06:13:16;66.87;;;45.50;;
16504;SDS011;8365;51.030;4.696;2023-02-15T06:15:46;76.27;;;45.43;;
16504;SDS011;8365;51.030;4.696;2023-02-15T06:18:17;72.43;;;46.07;;
16504;SDS011;8365;51.030;4.696;2023-02-15T06:20:47;69.00;;;46.90;;
16504;SDS011;8365;51.030;4.696;2023-02-15T06:23:18;67.93;;;44.07;;
16504;SDS011;8365;51.030;4.696;2023-02-15T06:25:49;66.27;;;45.07;;
16504;SDS011;8365;51.030;4.696;2023-02-15T06:28:19;69.57;;;44.60;;
16504;SDS011;8365;51.030;4.696;2023-02-15T06:30:50;70.90;;;50.10;;
16504;SDS011;8365;51.030;4.696;2023-02-15T06:33:20;64.27;;;44.27;;
16504;SDS011;8365;51.030;4.696;2023-02-15T06:35:51;74.70;;;50.97;;
16504;SDS011;8365;51.030;4.696;2023-02-15T06:38:22;89.03;;;54.50;;
16504;SDS011;8365;51.030;4.696;2023-02-15T06:40:52;81.80;;;55.80;;
16504;SDS011;8365;51.030;4.696;2023-02-15T06:43:23;74.27;;;49.03;;
16504;SDS011;8365;51.030;4.696;2023-02-15T06:45:53;70.47;;;47.60;;
16504;SDS011;8365;51.030;4.696;2023-02-15T06:48:24;81.07;;;49.63;;
16504;SDS011;8365;51.030;4.696;2023-02-15T06:50:57;82.00;;;51.23;;
16504;SDS011;8365;51.030;4.696;2023-02-15T06:53:27;78.90;;;48.27;;
16504;SDS011;8365;51.030;4.696;2023-02-15T06:56:02;71.00;;;46.63;;
16504;SDS011;8365;51.030;4.696;2023-02-15T06:58:37;76.47;;;46.63;;
16504;SDS011;8365;51.030;4.696;2023-02-15T07:01:12;75.13;;;47.47;;
16504;SDS011;8365;51.030;4.696;2023-02-15T07:03:45;67.53;;;46.80;;
16504;SDS011;8365;51.030;4.696;2023-02-15T07:06:16;83.40;;;54.83;;
16504;SDS011;8365;51.030;4.696;2023-02-15T07:08:49;80.07;;;52.90;;
16504;SDS011;8365;51.030;4.696;2023-02-15T07:11:19;81.17;;;53.73;;
16504;SDS011;8365;51.030;4.696;2023-02-15T07:14:08;68.77;;;49.20;;
16504;SDS011;8365;51.030;4.696;2023-02-15T07:16:39;68.67;;;45.73;;
16504;SDS011;8365;51.030;4.696;2023-02-15T07:19:09;71.23;;;48.07;;
16504;SDS011;8365;51.030;4.696;2023-02-15T07:21:40;67.20;;;45.63;;
16504;SDS011;8365;51.030;4.696;2023-02-15T07:24:10;74.57;;;55.97;;
16504;SDS011;8365;51.030;4.696;2023-02-15T07:26:41;68.97;;;46.67;;
16504;SDS011;8365;51.030;4.696;2023-02-15T07:29:11;67.60;;;45.40;;
16504;SDS011;8365;51.030;4.696;2023-02-15T07:31:42;66.83;;;45.77;;
16504;SDS011;8365;51.030;4.696;2023-02-15T07:34:17;78.33;;;61.37;;
16504;SDS011;8365;51.030;4.696;2023-02-15T07:36:50;67.87;;;45.67;;
16504;SDS011;8365;51.030;4.696;2023-02-15T07:39:20;69.70;;;48.50;;
16504;SDS011;8365;51.030;4.696;2023-02-15T07:41:51;65.90;;;44.50;;
16504;SDS011;8365;51.030;4.696;2023-02-15T07:44:21;62.70;;;41.20;;
16504;SDS011;8365;51.030;4.696;2023-02-15T07:46:52;61.20;;;40.93;;
16504;SDS011;8365;51.030;4.696;2023-02-15T07:49:22;55.83;;;38.87;;
16504;SDS011;8365;51.030;4.696;2023-02-15T07:51:53;57.97;;;40.13;;
16504;SDS011;8365;51.030;4.696;2023-02-15T07:54:23;58.93;;;41.03;;
16504;SDS011;8365;51.030;4.696;2023-02-15T07:56:54;59.57;;;39.73;;
16504;SDS011;8365;51.030;4.696;2023-02-15T07:59:24;61.83;;;42.00;;
16504;SDS011;8365;51.030;4.696;2023-02-15T08:01:54;60.90;;;41.63;;
16504;SDS011;8365;51.030;4.696;2023-02-15T08:04:26;57.73;;;41.20;;
16504;SDS011;8365;51.030;4.696;2023-02-15T08:06:56;60.97;;;42.93;;
16504;SDS011;8365;51.030;4.696;2023-02-15T08:09:27;61.27;;;43.73;;
16504;SDS011;8365;51.030;4.696;2023-02-15T08:11:57;61.37;;;44.80;;
16504;SDS011;8365;51.030;4.696;2023-02-15T08:14:28;63.07;;;45.40;;
16504;SDS011;8365;51.030;4.696;2023-02-15T08:16:59;59.07;;;42.00;;
16504;SDS011;8365;51.030;4.696;2023-02-15T08:19:32;65.47;;;45.90;;
16504;SDS011;8365;51.030;4.696;2023-02-15T08:22:05;66.67;;;45.33;;
16504;SDS011;8365;51.030;4.696;2023-02-15T08:24:37;76.37;;;51.40;;
16504;SDS011;8365;51.030;4.696;2023-02-15T08:27:09;64.50;;;44.63;;
16504;SDS011;8365;51.030;4.696;2023-02-15T08:29:40;67.70;;;43.50;;
16504;SDS011;8365;51.030;4.696;2023-02-15T08:32:12;60.87;;;44.83;;
16504;SDS011;8365;51.030;4.696;2023-02-15T08:34:46;56.33;;;42.80;;
16504;SDS011;8365;51.030;4.696;2023-02-15T08:37:17;59.07;;;41.23;;
16504;SDS011;8365;51.030;4.696;2023-02-15T08:39:47;63.50;;;42.77;;
16504;SDS011;8365;51.030;4.696;2023-02-15T08:42:18;57.17;;;40.30;;
16504;SDS011;8365;51.030;4.696;2023-02-15T08:44:50;60.47;;;41.77;;
16504;SDS011;8365;51.030;4.696;2023-02-15T08:47:21;60.77;;;41.33;;
16504;SDS011;8365;51.030;4.696;2023-02-15T08:49:52;59.93;;;42.40;;
16504;SDS011;8365;51.030;4.696;2023-02-15T08:52:22;55.90;;;41.23;;
16504;SDS011;8365;51.030;4.696;2023-02-15T08:54:53;57.70;;;41.93;;
16504;SDS011;8365;51.030;4.696;2023-02-15T08:57:23;55.53;;;39.47;;
16504;SDS011;8365;51.030;4.696;2023-02-15T08:59:54;57.00;;;38.93;;
16504;SDS011;8365;51.030;4.696;2023-02-15T09:02:25;55.50;;;40.30;;
16504;SDS011;8365;51.030;4.696;2023-02-15T09:04:55;53.73;;;38.07;;
16504;SDS011;8365;51.030;4.696;2023-02-15T09:07:25;53.47;;;39.17;;
16504;SDS011;8365;51.030;4.696;2023-02-15T09:09:56;53.77;;;39.23;;
16504;SDS011;8365;51.030;4.696;2023-02-15T09:12:26;56.27;;;41.63;;
16504;SDS011;8365;51.030;4.696;2023-02-15T09:14:57;57.27;;;41.33;;
16504;SDS011;8365;51.030;4.696;2023-02-15T09:17:27;61.30;;;45.90;;
16504;SDS011;8365;51.030;4.696;2023-02-15T09:19:58;53.97;;;39.80;;
16504;SDS011;8365;51.030;4.696;2023-02-15T09:22:28;54.37;;;39.17;;
16504;SDS011;8365;51.030;4.696;2023-02-15T09:25:01;55.73;;;42.23;;
16504;SDS011;8365;51.030;4.696;2023-02-15T09:27:31;55.00;;;40.13;;
16504;SDS011;8365;51.030;4.696;2023-02-15T09:30:04;54.03;;;38.80;;
16504;SDS011;8365;51.030;4.696;2023-02-15T09:32:35;52.00;;;36.33;;
16504;SDS011;8365;51.030;4.696;2023-02-15T09:35:05;53.67;;;36.60;;
16504;SDS011;8365;51.030;4.696;2023-02-15T09:37:36;47.23;;;35.63;;
16504;SDS011;8365;51.030;4.696;2023-02-15T09:40:06;49.03;;;34.97;;
16504;SDS011;8365;51.030;4.696;2023-02-15T09:45:48;46.80;;;34.70;;
16504;SDS011;8365;51.030;4.696;2023-02-15T09:48:49;42.20;;;31.93;;
16504;SDS011;8365;51.030;4.696;2023-02-15T09:54:37;40.90;;;30.43;;
16504;SDS011;8365;51.030;4.696;2023-02-15T09:57:32;40.10;;;29.07;;
16504;SDS011;8365;51.030;4.696;2023-02-15T10:06:22;35.00;;;27.07;;
16504;SDS011;8365;51.030;4.696;2023-02-15T10:20:32;38.90;;;27.07;;
16504;SDS011;8365;51.030;4.696;2023-02-15T10:34:31;34.70;;;25.70;;
16504;SDS011;8365;51.030;4.696;2023-02-15T10:40:14;31.50;;;24.43;;
16504;SDS011;8365;51.030;4.696;2023-02-15T10:43:03;35.33;;;25.17;;
16504;SDS011;8365;51.030;4.696;2023-02-15T10:46:03;34.27;;;25.30;;
16504;SDS011;8365;51.030;4.696;2023-02-15T11:08:43;31.97;;;24.20;;
16504;SDS011;8365;51.030;4.696;2023-02-15T11:13:59;28.77;;;23.80;;
16504;SDS011;8365;51.030;4.696;2023-02-15T11:16:34;32.10;;;24.85;;
16504;SDS011;8365;51.030;4.696;2023-02-15T11:19:11;31.65;;;24.98;;
16504;SDS011;8365;51.030;4.696;2023-02-15T11:21:47;31.23;;;25.80;;
16504;SDS011;8365;51.030;4.696;2023-02-15T11:24:20;28.48;;;23.88;;
16504;SDS011;8365;51.030;4.696;2023-02-15T11:26:54;26.95;;;23.52;;
16504;SDS011;8365;51.030;4.696;2023-02-15T11:29:32;30.73;;;24.33;;
16504;SDS011;8365;51.030;4.696;2023-02-15T11:37:40;33.20;;;25.40;;
16504;SDS011;8365;51.030;4.696;2023-02-15T11:40:26;32.35;;;26.38;;
16504;SDS011;8365;51.030;4.696;2023-02-15T11:43:01;30.60;;;25.08;;
16504;SDS011;8365;51.030;4.696;2023-02-15T11:45:37;29.70;;;25.05;;
16504;SDS011;8365;51.030;4.696;2023-02-15T11:48:15;33.05;;;25.23;;
16504;SDS011;8365;51.030;4.696;2023-02-15T11:50:45;32.00;;;25.13;;
16504;SDS011;8365;51.030;4.696;2023-02-15T11:53:18;33.30;;;26.13;;
16504;SDS011;8365;51.030;4.696;2023-02-15T11:55:59;30.90;;;25.33;;
16504;SDS011;8365;51.030;4.696;2023-02-15T12:01:10;33.83;;;26.08;;
16504;SDS011;8365;51.030;4.696;2023-02-15T12:08:56;33.10;;;25.35;;
16504;SDS011;8365;51.030;4.696;2023-02-15T12:11:34;35.15;;;26.27;;
16504;SDS011;8365;51.030;4.696;2023-02-15T12:14:09;29.85;;;24.08;;
16504;SDS011;8365;51.030;4.696;2023-02-15T12:19:28;32.97;;;26.42;;
16504;SDS011;8365;51.030;4.696;2023-02-15T12:22:20;32.35;;;24.98;;
16504;SDS011;8365;51.030;4.696;2023-02-15T12:24:54;32.25;;;24.85;;
16504;SDS011;8365;51.030;4.696;2023-02-15T12:27:37;29.85;;;24.30;;
16504;SDS011;8365;51.030;4.696;2023-02-15T12:33:04;34.88;;;25.38;;
16504;SDS011;8365;51.030;4.696;2023-02-15T12:35:46;33.08;;;25.70;;
16504;SDS011;8365;51.030;4.696;2023-02-15T12:38:23;33.38;;;24.23;;
16504;SDS011;8365;51.030;4.696;2023-02-15T12:40:59;32.25;;;26.20;;
16504;SDS011;8365;51.030;4.696;2023-02-15T12:43:36;31.52;;;25.08;;
16504;SDS011;8365;51.030;4.696;2023-02-15T12:46:29;35.00;;;24.50;;
16504;SDS011;8365;51.030;4.696;2023-02-15T12:49:05;32.05;;;25.52;;
16504;SDS011;8365;51.030;4.696;2023-02-15T12:51:46;32.17;;;25.30;;
16504;SDS011;8365;51.030;4.696;2023-02-15T12:56:51;31.80;;;23.73;;
16504;SDS011;8365;51.030;4.696;2023-02-15T12:59:21;30.83;;;23.55;;
16504;SDS011;8365;51.030;4.696;2023-02-15T13:01:52;32.03;;;24.23;;
16504;SDS011;8365;51.030;4.696;2023-02-15T13:04:27;34.42;;;25.67;;
16504;SDS011;8365;51.030;4.696;2023-02-15T13:07:00;35.22;;;25.02;;
16504;SDS011;8365;51.030;4.696;2023-02-15T13:14:51;30.48;;;24.13;;
16504;SDS011;8365;51.030;4.696;2023-02-15T13:17:25;36.30;;;24.88;;
16504;SDS011;8365;51.030;4.696;2023-02-15T13:20:20;31.05;;;24.88;;
16504;SDS011;8365;51.030;4.696;2023-02-15T13:22:58;33.40;;;24.92;;
16504;SDS011;8365;51.030;4.696;2023-02-15T13:25:32;33.58;;;25.20;;
16504;SDS011;8365;51.030;4.696;2023-02-15T13:28:13;34.47;;;24.77;;
16504;SDS011;8365;51.030;4.696;2023-02-15T13:30:46;32.67;;;25.10;;
16504;SDS011;8365;51.030;4.696;2023-02-15T13:41:44;32.75;;;25.27;;
16504;SDS011;8365;51.030;4.696;2023-02-15T13:50:25;31.35;;;25.83;;
16504;SDS011;8365;51.030;4.696;2023-02-15T13:59:23;33.95;;;25.55;;
16504;SDS011;8365;51.030;4.696;2023-02-15T14:19:15;56.88;;;28.77;;
16504;SDS011;8365;51.030;4.696;2023-02-15T14:22:07;37.17;;;25.63;;
16504;SDS011;8365;51.030;4.696;2023-02-15T14:24:42;34.03;;;25.80;;
16504;SDS011;8365;51.030;4.696;2023-02-15T14:29:57;37.47;;;26.55;;
16504;SDS011;8365;51.030;4.696;2023-02-15T14:35:03;32.95;;;25.30;;
16504;SDS011;8365;51.030;4.696;2023-02-15T14:37:43;35.85;;;26.55;;
16504;SDS011;8365;51.030;4.696;2023-02-15T14:40:32;32.97;;;26.00;;
16504;SDS011;8365;51.030;4.696;2023-02-15T14:48:54;35.22;;;26.60;;
16504;SDS011;8365;51.030;4.696;2023-02-15T15:02:17;37.30;;;27.45;;
16504;SDS011;8365;51.030;4.696;2023-02-15T15:07:22;40.47;;;27.57;;
16504;SDS011;8365;51.030;4.696;2023-02-15T15:09:59;37.42;;;27.88;;
16504;SDS011;8365;51.030;4.696;2023-02-15T15:12:51;38.17;;;27.97;;
16504;SDS011;8365;51.030;4.696;2023-02-15T15:18:05;36.88;;;28.17;;
16504;SDS011;8365;51.030;4.696;2023-02-15T15:42:30;40.27;;;28.80;;
16504;SDS011;8365;51.030;4.696;2023-02-15T15:48:24;40.70;;;30.83;;
16504;SDS011;8365;51.030;4.696;2023-02-15T15:51:00;42.67;;;31.77;;
16504;SDS011;8365;51.030;4.696;2023-02-15T15:53:40;37.00;;;29.83;;
16504;SDS011;8365;51.030;4.696;2023-02-15T15:56:16;37.47;;;30.63;;
16504;SDS011;8365;51.030;4.696;2023-02-15T15:58:51;42.07;;;30.60;;
16504;SDS011;8365;51.030;4.696;2023-02-15T16:01:34;39.20;;;29.87;;
16504;SDS011;8365;51.030;4.696;2023-02-15T16:04:11;41.13;;;30.30;;
16504;SDS011;8365;51.030;4.696;2023-02-15T16:06:44;40.73;;;30.20;;
16504;SDS011;8365;51.030;4.696;2023-02-15T16:09:35;41.73;;;31.43;;
16504;SDS011;8365;51.030;4.696;2023-02-15T16:12:10;41.53;;;32.33;;
16504;SDS011;8365;51.030;4.696;2023-02-15T16:14:45;41.30;;;30.20;;
16504;SDS011;8365;51.030;4.696;2023-02-15T16:17:22;42.83;;;33.00;;
16504;SDS011;8365;51.030;4.696;2023-02-15T16:19:58;48.07;;;32.50;;
16504;SDS011;8365;51.030;4.696;2023-02-15T16:22:45;42.20;;;33.23;;
16504;SDS011;8365;51.030;4.696;2023-02-15T16:28:18;48.40;;;34.60;;
16504;SDS011;8365;51.030;4.696;2023-02-15T16:31:05;52.80;;;34.23;;
16504;SDS011;8365;51.030;4.696;2023-02-15T16:33:36;47.00;;;35.33;;
16504;SDS011;8365;51.030;4.696;2023-02-15T16:36:12;46.83;;;36.80;;
16504;SDS011;8365;51.030;4.696;2023-02-15T16:41:25;50.47;;;34.77;;
16504;SDS011;8365;51.030;4.696;2023-02-15T16:44:06;48.03;;;35.40;;
16504;SDS011;8365;51.030;4.696;2023-02-15T16:46:48;43.77;;;34.10;;
16504;SDS011;8365;51.030;4.696;2023-02-15T16:49:27;54.03;;;34.77;;
16504;SDS011;8365;51.030;4.696;2023-02-15T16:52:00;47.07;;;34.60;;
16504;SDS011;8365;51.030;4.696;2023-02-15T16:54:35;49.67;;;34.77;;
16504;SDS011;8365;51.030;4.696;2023-02-15T16:57:06;45.33;;;34.93;;
16504;SDS011;8365;51.030;4.696;2023-02-15T16:59:48;48.57;;;35.00;;
16504;SDS011;8365;51.030;4.696;2023-02-15T17:02:24;45.43;;;33.07;;
16504;SDS011;8365;51.030;4.696;2023-02-15T17:07:41;50.17;;;36.50;;
16504;SDS011;8365;51.030;4.696;2023-02-15T17:10:25;50.60;;;37.53;;
16504;SDS011;8365;51.030;4.696;2023-02-15T17:13:02;48.80;;;36.60;;
16504;SDS011;8365;51.030;4.696;2023-02-15T17:21:08;49.23;;;36.30;;
16504;SDS011;8365;51.030;4.696;2023-02-15T17:23:48;50.63;;;37.10;;
16504;SDS011;8365;51.030;4.696;2023-02-15T17:26:22;47.73;;;35.97;;
16504;SDS011;8365;51.030;4.696;2023-02-15T17:28:58;46.80;;;37.03;;
16504;SDS011;8365;51.030;4.696;2023-02-15T17:31:31;50.53;;;37.77;;
16504;SDS011;8365;51.030;4.696;2023-02-15T17:34:05;48.03;;;34.80;;
16504;SDS011;8365;51.030;4.696;2023-02-15T17:36:36;49.00;;;33.47;;
16504;SDS011;8365;51.030;4.696;2023-02-15T17:39:27;45.10;;;34.73;;
16504;SDS011;8365;51.030;4.696;2023-02-15T17:41:57;47.33;;;35.23;;
16504;SDS011;8365;51.030;4.696;2023-02-15T17:44:28;47.83;;;35.23;;
16504;SDS011;8365;51.030;4.696;2023-02-15T17:46:59;49.17;;;36.50;;
16504;SDS011;8365;51.030;4.696;2023-02-15T17:49:30;51.97;;;35.37;;
16504;SDS011;8365;51.030;4.696;2023-02-15T17:52:04;50.70;;;35.30;;
16504;SDS011;8365;51.030;4.696;2023-02-15T17:54:40;54.80;;;36.50;;
16504;SDS011;8365;51.030;4.696;2023-02-15T17:57:29;50.53;;;36.47;;
16504;SDS011;8365;51.030;4.696;2023-02-15T18:00:00;48.60;;;35.90;;
16504;SDS011;8365;51.030;4.696;2023-02-15T18:02:49;49.97;;;36.47;;
16504;SDS011;8365;51.030;4.696;2023-02-15T18:05:38;50.50;;;35.40;;
16504;SDS011;8365;51.030;4.696;2023-02-15T18:08:27;47.33;;;35.43;;
16504;SDS011;8365;51.030;4.696;2023-02-15T18:11:16;46.70;;;35.20;;
16504;SDS011;8365;51.030;4.696;2023-02-15T18:14:09;49.47;;;35.20;;
16504;SDS011;8365;51.030;4.696;2023-02-15T18:16:41;48.80;;;35.73;;
16504;SDS011;8365;51.030;4.696;2023-02-15T18:19:15;51.03;;;37.63;;
16504;SDS011;8365;51.030;4.696;2023-02-15T18:21:48;52.20;;;36.33;;
16504;SDS011;8365;51.030;4.696;2023-02-15T18:24:21;50.73;;;37.33;;
16504;SDS011;8365;51.030;4.696;2023-02-15T18:26:53;50.77;;;38.30;;
16504;SDS011;8365;51.030;4.696;2023-02-15T18:29:24;52.07;;;37.63;;
16504;SDS011;8365;51.030;4.696;2023-02-15T18:31:55;54.50;;;38.90;;
16504;SDS011;8365;51.030;4.696;2023-02-15T18:34:28;53.27;;;37.80;;
16504;SDS011;8365;51.030;4.696;2023-02-15T18:37:01;49.17;;;36.07;;
16504;SDS011;8365;51.030;4.696;2023-02-15T18:39:35;50.07;;;37.50;;
16504;SDS011;8365;51.030;4.696;2023-02-15T18:42:19;53.80;;;38.90;;
16504;SDS011;8365;51.030;4.696;2023-02-15T18:44:52;51.60;;;39.23;;
16504;SDS011;8365;51.030;4.696;2023-02-15T18:47:25;54.07;;;38.97;;
16504;SDS011;8365;51.030;4.696;2023-02-15T18:49:56;51.10;;;38.57;;
16504;SDS011;8365;51.030;4.696;2023-02-15T18:52:30;52.97;;;39.30;;
16504;SDS011;8365;51.030;4.696;2023-02-15T18:55:04;52.63;;;38.40;;
16504;SDS011;8365;51.030;4.696;2023-02-15T18:57:48;52.03;;;37.67;;
16504;SDS011;8365;51.030;4.696;2023-02-15T19:02:57;57.10;;;40.67;;
16504;SDS011;8365;51.030;4.696;2023-02-15T19:05:29;53.80;;;39.93;;
16504;SDS011;8365;51.030;4.696;2023-02-15T19:08:00;51.73;;;39.47;;
16504;SDS011;8365;51.030;4.696;2023-02-15T19:10:32;56.37;;;40.87;;
16504;SDS011;8365;51.030;4.696;2023-02-15T19:13:02;49.33;;;37.60;;
16504;SDS011;8365;51.030;4.696;2023-02-15T19:15:37;53.77;;;39.07;;
16504;SDS011;8365;51.030;4.696;2023-02-15T19:18:08;52.97;;;39.63;;
16504;SDS011;8365;51.030;4.696;2023-02-15T19:20:42;58.13;;;40.70;;